Time;durP1;ratioP1;P1;durP2;ratioP2;P2;SDS_P1;SDS_P2;PMS_P1;PMS_P2;Temp;Humidity;BMP_temperature;BMP_pressure;BME280_temperature;BME280_humidity;BME280_pressure;Samples;Min_cycle;Max_cycle;Signal;HPM_P1;HPM_P2
2022/03/31 00:02:20;;;;;;;15.23;9.48;;;;;;;;;;5059249;28;20048;-84
2022/03/31 00:04:47;;;;;;;17.20;10.15;;;;;;;;;;5067194;28;20044;-84
2022/03/31 00:07:13;;;;;;;15.20;8.82;;;;;;;;;;5068679;28;20048;-84
2022/03/31 00:09:40;;;;;;;18.60;10.73;;;;;;;;;;5049855;28;20056;-84
2022/03/31 00:12:07;;;;;;;18.10;10.50;;;;;;;;;;5054637;28;20114;-84
2022/03/31 00:14:38;;;;;;;18.55;10.07;;;;;;;;;;5044320;28;20176;-84
2022/03/31 00:17:09;;;;;;;20.63;11.13;;;;;;;;;;5045136;28;20091;-84
2022/03/31 00:19:37;;;;;;;18.98;11.05;;;;;;;;;;5042666;28;20049;-84
2022/03/31 00:22:04;;;;;;;19.50;10.50;;;;;;;;;;5043430;28;20052;-84
2022/03/31 00:24:31;;;;;;;16.40;9.95;;;;;;;;;;5043449;28;20830;-84
2022/03/31 00:26:57;;;;;;;17.45;10.00;;;;;;;;;;5043984;28;20092;-84
2022/03/31 00:29:24;;;;;;;16.23;10.32;;;;;;;;;;5046901;28;20041;-84
2022/03/31 00:31:51;;;;;;;18.98;10.60;;;;;;;;;;5040025;28;20049;-84
2022/03/31 00:34:19;;;;;;;18.15;10.52;;;;;;;;;;5039848;28;20459;-84
2022/03/31 00:36:45;;;;;;;17.55;10.10;;;;;;;;;;5038549;28;20056;-84
2022/03/31 00:39:32;;;;;;;17.20;10.35;;;;;;;;;;5040044;28;20093;-84
2022/03/31 00:41:59;;;;;;;19.73;10.93;;;;;;;;;;5042128;28;20132;-84
2022/03/31 00:44:25;;;;;;;19.05;11.20;;;;;;;;;;5041656;28;20128;-84
2022/03/31 00:46:53;;;;;;;18.88;11.23;;;;;;;;;;5044224;28;20080;-84
2022/03/31 00:49:22;;;;;;;19.95;9.98;;;;;;;;;;5041373;28;20045;-84
2022/03/31 00:51:50;;;;;;;19.95;11.73;;;;;;;;;;5046107;28;20049;-84
2022/03/31 00:54:19;;;;;;;20.27;11.82;;;;;;;;;;5043052;28;20048;-84
2022/03/31 00:56:46;;;;;;;21.30;11.20;;;;;;;;;;5040809;28;20080;-84
2022/03/31 00:59:12;;;;;;;23.20;12.48;;;;;;;;;;5041280;28;20148;-84
2022/03/31 01:01:40;;;;;;;23.90;13.45;;;;;;;;;;5044177;28;20187;-86
2022/03/31 01:04:07;;;;;;;23.27;11.75;;;;;;;;;;5037628;28;20056;-86
2022/03/31 01:06:36;;;;;;;21.38;11.48;;;;;;;;;;5044841;28;20061;-86
2022/03/31 01:09:02;;;;;;;22.50;11.70;;;;;;;;;;5053434;28;20083;-86
2022/03/31 01:11:30;;;;;;;23.23;13.07;;;;;;;;;;5060008;28;20390;-86
2022/03/31 01:13:56;;;;;;;23.58;12.10;;;;;;;;;;5062216;28;20063;-86
2022/03/31 01:16:23;;;;;;;25.15;13.95;;;;;;;;;;5064865;28;20072;-86
2022/03/31 01:18:51;;;;;;;20.33;10.85;;;;;;;;;;5061346;28;20087;-86
2022/03/31 01:21:20;;;;;;;22.30;12.05;;;;;;;;;;5065070;28;20049;-86
2022/03/31 01:23:48;;;;;;;20.50;11.68;;;;;;;;;;5066994;28;20401;-86
2022/03/31 01:26:15;;;;;;;20.13;11.57;;;;;;;;;;5063184;28;20315;-86
2022/03/31 01:28:44;;;;;;;20.17;11.60;;;;;;;;;;5061580;28;20199;-86
2022/03/31 01:31:11;;;;;;;27.40;13.73;;;;;;;;;;5059662;28;20040;-86
2022/03/31 01:33:38;;;;;;;23.27;12.68;;;;;;;;;;5062323;28;20048;-86
2022/03/31 01:36:07;;;;;;;19.77;10.85;;;;;;;;;;5066770;28;20052;-86
2022/03/31 01:38:34;;;;;;;24.88;12.30;;;;;;;;;;5067343;28;20193;-86
2022/03/31 01:41:02;;;;;;;19.83;11.85;;;;;;;;;;5063606;28;20041;-86
2022/03/31 01:43:29;;;;;;;21.58;11.73;;;;;;;;;;5065162;28;20409;-86
2022/03/31 01:45:56;;;;;;;20.17;11.27;;;;;;;;;;5068625;28;20660;-86
2022/03/31 01:48:23;;;;;;;22.70;13.02;;;;;;;;;;5066313;28;20063;-86
2022/03/31 01:50:50;;;;;;;22.67;11.98;;;;;;;;;;5069653;28;20044;-87
2022/03/31 01:53:18;;;;;;;20.15;10.80;;;;;;;;;;5068351;28;20076;-87
2022/03/31 01:55:45;;;;;;;21.98;12.05;;;;;;;;;;5061415;28;20099;-87
2022/03/31 01:58:13;;;;;;;22.10;12.23;;;;;;;;;;5068886;28;20040;-87
2022/03/31 02:00:40;;;;;;;23.67;12.38;;;;;;;;;;5065607;28;20474;-86
2022/03/31 02:03:06;;;;;;;25.70;12.70;;;;;;;;;;5066630;28;20045;-86
2022/03/31 02:05:33;;;;;;;23.65;13.00;;;;;;;;;;5070983;28;20574;-86
2022/03/31 02:07:59;;;;;;;21.23;12.82;;;;;;;;;;5070770;28;20099;-85
2022/03/31 02:10:26;;;;;;;22.77;13.48;;;;;;;;;;5063450;28;20048;-86
2022/03/31 02:12:53;;;;;;;23.35;12.25;;;;;;;;;;5069341;28;20060;-86
2022/03/31 02:15:22;;;;;;;24.00;13.02;;;;;;;;;;5066810;28;20123;-86
2022/03/31 02:17:48;;;;;;;27.23;13.20;;;;;;;;;;5066638;28;20068;-85
2022/03/31 02:20:15;;;;;;;19.17;11.90;;;;;;;;;;5068545;28;20095;-86
2022/03/31 02:22:42;;;;;;;26.70;13.23;;;;;;;;;;5065574;28;20045;-86
2022/03/31 02:25:09;;;;;;;23.65;13.65;;;;;;;;;;5063043;28;20083;-86
2022/03/31 02:27:36;;;;;;;29.98;13.93;;;;;;;;;;5063594;28;20076;-86
2022/03/31 02:30:04;;;;;;;26.95;13.93;;;;;;;;;;5063405;28;20496;-86
2022/03/31 02:32:32;;;;;;;31.33;14.90;;;;;;;;;;5068107;28;20052;-86
2022/03/31 02:34:59;;;;;;;29.92;13.63;;;;;;;;;;5064661;28;20041;-86
2022/03/31 02:37:26;;;;;;;24.77;13.13;;;;;;;;;;5066766;28;20099;-86
2022/03/31 02:39:53;;;;;;;31.33;14.45;;;;;;;;;;5068976;28;20116;-85
2022/03/31 02:42:20;;;;;;;26.60;13.27;;;;;;;;;;5065390;28;20110;-86
2022/03/31 02:44:47;;;;;;;29.17;14.27;;;;;;;;;;5062008;28;20048;-86
2022/03/31 02:47:13;;;;;;;31.80;14.05;;;;;;;;;;5065942;28;20059;-86
2022/03/31 02:49:41;;;;;;;28.10;13.48;;;;;;;;;;5067514;28;20068;-86
2022/03/31 02:52:08;;;;;;;29.90;15.35;;;;;;;;;;5068917;28;20088;-86
2022/03/31 02:57:19;;;;;;;26.55;14.80;;;;;;;;;;5066869;28;20523;-86
2022/03/31 02:59:46;;;;;;;26.48;14.07;;;;;;;;;;5065136;28;20505;-86
2022/03/31 03:02:13;;;;;;;28.60;14.98;;;;;;;;;;5066547;28;20044;-86
2022/03/31 03:04:41;;;;;;;27.40;13.75;;;;;;;;;;5057347;28;20051;-86
2022/03/31 03:07:08;;;;;;;30.45;14.50;;;;;;;;;;5064604;28;20405;-86
2022/03/31 03:09:36;;;;;;;29.52;14.00;;;;;;;;;;5063494;28;20135;-86
2022/03/31 03:12:03;;;;;;;32.58;15.20;;;;;;;;;;5059345;28;20052;-85
2022/03/31 03:14:30;;;;;;;31.50;15.82;;;;;;;;;;5058974;28;20566;-85
2022/03/31 03:17:02;;;;;;;33.13;16.27;;;;;;;;;;5059958;28;20390;-86
2022/03/31 03:19:29;;;;;;;34.40;16.50;;;;;;;;;;5057033;28;20048;-86
2022/03/31 03:21:57;;;;;;;30.13;15.70;;;;;;;;;;5064768;28;20518;-85
2022/03/31 03:24:24;;;;;;;35.45;16.40;;;;;;;;;;5064174;28;20411;-85
2022/03/31 03:26:50;;;;;;;32.50;17.35;;;;;;;;;;5063095;28;20056;-86
2022/03/31 03:29:17;;;;;;;33.50;17.05;;;;;;;;;;5068547;28;20103;-86
2022/03/31 03:31:44;;;;;;;33.33;15.95;;;;;;;;;;5058333;28;20063;-86
2022/03/31 03:34:11;;;;;;;30.25;15.40;;;;;;;;;;5057674;28;20102;-86
2022/03/31 03:36:37;;;;;;;34.45;17.48;;;;;;;;;;5058507;28;20578;-86
2022/03/31 03:39:06;;;;;;;30.08;14.98;;;;;;;;;;5059400;28;20520;-86
2022/03/31 03:41:32;;;;;;;30.50;15.77;;;;;;;;;;5058057;28;20057;-86
2022/03/31 03:43:59;;;;;;;36.17;16.73;;;;;;;;;;5057668;28;20075;-86
2022/03/31 03:46:26;;;;;;;31.05;16.52;;;;;;;;;;5054113;28;20044;-86
2022/03/31 03:48:52;;;;;;;32.97;17.55;;;;;;;;;;5055710;28;20057;-86
2022/03/31 03:51:19;;;;;;;30.50;15.88;;;;;;;;;;5063105;28;21533;-86
2022/03/31 03:53:45;;;;;;;32.60;16.40;;;;;;;;;;5061699;28;20068;-86
2022/03/31 03:56:13;;;;;;;32.47;15.43;;;;;;;;;;5057325;28;21596;-86
2022/03/31 03:58:40;;;;;;;29.95;15.38;;;;;;;;;;5057250;28;20430;-86
2022/03/31 04:01:07;;;;;;;33.88;16.90;;;;;;;;;;5055523;28;20048;-86
2022/03/31 04:03:33;;;;;;;33.40;17.65;;;;;;;;;;5057386;28;20076;-86
2022/03/31 04:06:00;;;;;;;32.38;17.00;;;;;;;;;;5059589;28;20333;-86
2022/03/31 04:08:26;;;;;;;34.40;16.95;;;;;;;;;;5065149;28;20141;-86
2022/03/31 04:10:53;;;;;;;30.00;15.10;;;;;;;;;;5061292;28;20083;-86
2022/03/31 04:13:21;;;;;;;34.05;16.17;;;;;;;;;;5059041;28;20446;-86
2022/03/31 04:15:51;;;;;;;27.60;14.05;;;;;;;;;;5062759;28;20041;-86
2022/03/31 04:18:17;;;;;;;33.00;16.88;;;;;;;;;;5062130;28;20036;-86
2022/03/31 04:20:44;;;;;;;35.03;17.15;;;;;;;;;;5060954;28;20079;-86
2022/03/31 04:23:11;;;;;;;38.15;17.17;;;;;;;;;;5062722;28;20180;-86
2022/03/31 04:25:37;;;;;;;35.55;18.55;;;;;;;;;;5062852;28;20131;-86
2022/03/31 04:28:05;;;;;;;30.85;16.05;;;;;;;;;;5063344;28;20076;-86
2022/03/31 04:30:33;;;;;;;32.20;14.80;;;;;;;;;;5059213;28;20142;-86
2022/03/31 04:32:59;;;;;;;27.52;15.43;;;;;;;;;;5070053;28;20139;-86
2022/03/31 04:35:26;;;;;;;32.88;16.92;;;;;;;;;;5065305;28;20138;-86
2022/03/31 04:37:52;;;;;;;29.88;15.88;;;;;;;;;;5069541;28;20091;-86
2022/03/31 04:40:19;;;;;;;30.42;16.25;;;;;;;;;;5062239;28;20103;-86
2022/03/31 04:42:46;;;;;;;33.17;16.38;;;;;;;;;;5061545;28;20131;-86
2022/03/31 04:45:13;;;;;;;33.28;15.98;;;;;;;;;;5062541;28;20079;-86
2022/03/31 04:47:41;;;;;;;30.88;16.02;;;;;;;;;;5052382;28;20040;-86
2022/03/31 04:50:08;;;;;;;40.67;17.95;;;;;;;;;;5058191;28;20525;-86
2022/03/31 04:52:35;;;;;;;33.22;17.50;;;;;;;;;;5056521;28;20457;-86
2022/03/31 04:55:01;;;;;;;32.45;17.17;;;;;;;;;;5058206;28;20049;-86
2022/03/31 04:57:28;;;;;;;33.25;16.38;;;;;;;;;;5058959;28;20044;-86
2022/03/31 04:59:54;;;;;;;28.65;15.77;;;;;;;;;;5058338;28;20065;-86
2022/03/31 05:02:21;;;;;;;26.35;14.98;;;;;;;;;;5057741;28;20052;-87
2022/03/31 05:04:49;;;;;;;32.85;16.25;;;;;;;;;;5057354;28;20052;-86
2022/03/31 05:07:16;;;;;;;31.48;16.02;;;;;;;;;;5058558;28;20056;-87
2022/03/31 05:09:42;;;;;;;28.30;15.52;;;;;;;;;;5058776;28;20505;-86
2022/03/31 05:12:11;;;;;;;29.13;15.18;;;;;;;;;;5057533;28;20056;-87
2022/03/31 05:14:38;;;;;;;33.03;16.60;;;;;;;;;;5056050;28;20405;-87
2022/03/31 05:17:05;;;;;;;33.13;16.58;;;;;;;;;;5055908;28;20053;-86
2022/03/31 05:19:32;;;;;;;32.15;15.93;;;;;;;;;;5057306;28;20098;-86
2022/03/31 05:22:00;;;;;;;31.40;14.95;;;;;;;;;;5047201;28;20666;-87
2022/03/31 05:24:26;;;;;;;31.65;15.65;;;;;;;;;;5059986;28;20095;-86
2022/03/31 05:26:53;;;;;;;32.95;17.25;;;;;;;;;;5061118;28;20080;-86
2022/03/31 05:29:20;;;;;;;30.52;16.05;;;;;;;;;;5063315;28;20067;-86
2022/03/31 05:31:47;;;;;;;32.88;16.40;;;;;;;;;;5061087;28;20523;-86
2022/03/31 05:34:14;;;;;;;29.70;15.43;;;;;;;;;;5061585;28;20499;-86
2022/03/31 05:36:40;;;;;;;28.20;14.07;;;;;;;;;;5059510;28;20182;-86
2022/03/31 05:39:08;;;;;;;29.65;15.32;;;;;;;;;;5064827;28;20513;-86
2022/03/31 05:41:35;;;;;;;31.20;15.63;;;;;;;;;;5071813;28;20044;-86
2022/03/31 05:44:03;;;;;;;32.35;18.45;;;;;;;;;;5069814;28;20047;-86
2022/03/31 05:46:30;;;;;;;32.88;16.17;;;;;;;;;;5073717;28;20044;-86
2022/03/31 05:48:58;;;;;;;31.65;15.63;;;;;;;;;;5070275;28;20045;-87
2022/03/31 05:51:25;;;;;;;34.13;17.23;;;;;;;;;;5071146;28;20472;-87
2022/03/31 05:53:52;;;;;;;33.72;16.73;;;;;;;;;;5067871;28;20052;-87
2022/03/31 05:56:22;;;;;;;28.38;14.30;;;;;;;;;;5071033;28;20379;-87
2022/03/31 05:58:50;;;;;;;34.28;16.38;;;;;;;;;;5072969;28;20078;-86
2022/03/31 06:01:19;;;;;;;30.63;13.68;;;;;;;;;;5071884;28;20075;-87
2022/03/31 06:03:47;;;;;;;29.77;15.00;;;;;;;;;;5072854;28;20414;-87
2022/03/31 06:06:14;;;;;;;24.38;13.65;;;;;;;;;;5074871;28;20045;-87
2022/03/31 06:08:41;;;;;;;26.17;14.18;;;;;;;;;;5071909;28;20444;-86
2022/03/31 06:11:08;;;;;;;26.75;14.35;;;;;;;;;;5076602;28;20370;-86
2022/03/31 06:13:37;;;;;;;28.65;14.70;;;;;;;;;;5070352;28;20059;-86
2022/03/31 06:16:05;;;;;;;30.20;15.27;;;;;;;;;;5069777;28;20045;-86
2022/03/31 06:18:32;;;;;;;27.15;14.15;;;;;;;;;;5064533;28;20052;-84
2022/03/31 06:21:00;;;;;;;27.58;15.68;;;;;;;;;;5064892;28;20049;-83
2022/03/31 06:23:28;;;;;;;28.48;15.80;;;;;;;;;;5070462;28;20118;-84
2022/03/31 06:25:54;;;;;;;28.25;14.35;;;;;;;;;;5069897;28;20524;-84
2022/03/31 06:28:21;;;;;;;28.17;14.05;;;;;;;;;;5069486;28;20104;-84
2022/03/31 06:30:52;;;;;;;29.60;14.82;;;;;;;;;;5070477;28;20281;-84
2022/03/31 06:33:19;;;;;;;30.80;15.65;;;;;;;;;;5069548;28;20048;-84
2022/03/31 06:35:46;;;;;;;28.17;15.40;;;;;;;;;;5068913;28;20079;-84
2022/03/31 06:38:13;;;;;;;27.45;14.50;;;;;;;;;;5068023;28;20044;-84
2022/03/31 06:40:41;;;;;;;23.77;14.45;;;;;;;;;;5069928;28;20480;-84
2022/03/31 06:43:13;;;;;;;30.95;15.68;;;;;;;;;;5069100;28;20044;-83
2022/03/31 06:45:39;;;;;;;26.75;15.65;;;;;;;;;;5068705;28;20391;-83
2022/03/31 06:48:14;;;;;;;32.00;15.73;;;;;;;;;;5068816;28;20544;-83
2022/03/31 06:50:42;;;;;;;31.67;15.50;;;;;;;;;;5068302;28;20075;-83
2022/03/31 06:53:08;;;;;;;28.70;15.65;;;;;;;;;;5069603;28;20047;-84
2022/03/31 06:55:35;;;;;;;29.25;16.42;;;;;;;;;;5069414;28;20448;-84
2022/03/31 06:58:02;;;;;;;30.88;15.32;;;;;;;;;;5069523;28;20552;-84
2022/03/31 07:00:29;;;;;;;32.92;16.35;;;;;;;;;;5068508;28;20044;-84
2022/03/31 07:02:55;;;;;;;30.42;16.27;;;;;;;;;;5071838;28;20469;-83
2022/03/31 07:05:23;;;;;;;32.05;15.95;;;;;;;;;;5069742;28;20541;-83
2022/03/31 07:07:50;;;;;;;30.65;16.33;;;;;;;;;;5068983;28;20578;-83
2022/03/31 07:10:17;;;;;;;31.85;16.10;;;;;;;;;;5067958;28;20056;-84
2022/03/31 07:12:43;;;;;;;31.58;16.52;;;;;;;;;;5067430;28;20059;-83
2022/03/31 07:15:10;;;;;;;29.65;15.93;;;;;;;;;;5063578;28;20468;-84
2022/03/31 07:17:38;;;;;;;29.65;14.23;;;;;;;;;;5067950;28;20041;-84
2022/03/31 07:20:05;;;;;;;31.60;17.05;;;;;;;;;;5068299;28;20056;-84
2022/03/31 07:22:34;;;;;;;27.00;14.23;;;;;;;;;;5068325;28;20118;-84
2022/03/31 07:25:01;;;;;;;28.80;15.13;;;;;;;;;;5067331;28;20040;-83
2022/03/31 07:27:27;;;;;;;32.60;18.45;;;;;;;;;;5068289;28;20135;-84
2022/03/31 07:29:54;;;;;;;31.20;16.70;;;;;;;;;;5071723;28;20072;-84
2022/03/31 07:32:20;;;;;;;31.27;15.57;;;;;;;;;;5069323;28;20475;-84
2022/03/31 07:34:47;;;;;;;29.95;15.10;;;;;;;;;;5068747;28;20048;-83
2022/03/31 07:37:13;;;;;;;27.50;14.63;;;;;;;;;;5069028;28;20474;-83
2022/03/31 07:39:45;;;;;;;31.17;16.13;;;;;;;;;;5072275;28;20048;-84
2022/03/31 07:42:12;;;;;;;27.05;14.25;;;;;;;;;;5067822;28;20045;-83
2022/03/31 07:44:39;;;;;;;27.92;15.38;;;;;;;;;;5068155;28;20480;-83
2022/03/31 07:47:06;;;;;;;29.73;14.27;;;;;;;;;;5067790;28;20187;-83
2022/03/31 07:49:33;;;;;;;28.75;14.30;;;;;;;;;;5067875;28;20536;-83
2022/03/31 07:52:07;;;;;;;26.50;14.43;;;;;;;;;;5067301;28;20053;-84
2022/03/31 07:54:33;;;;;;;28.52;14.98;;;;;;;;;;5067390;28;20474;-84
2022/03/31 07:57:01;;;;;;;30.10;15.48;;;;;;;;;;5066592;28;20576;-84
2022/03/31 07:59:33;;;;;;;31.35;15.25;;;;;;;;;;5062258;28;20083;-83
2022/03/31 08:02:00;;;;;;;38.95;18.40;;;;;;;;;;5069526;28;20044;-84
2022/03/31 08:04:27;;;;;;;43.85;19.08;;;;;;;;;;5068625;28;20076;-84
2022/03/31 08:06:54;;;;;;;36.00;18.05;;;;;;;;;;5068488;28;20742;-84
2022/03/31 08:09:21;;;;;;;35.00;17.90;;;;;;;;;;5064176;28;20798;-84
2022/03/31 08:11:49;;;;;;;36.72;18.13;;;;;;;;;;5067230;28;20072;-84
2022/03/31 08:14:19;;;;;;;34.35;18.00;;;;;;;;;;5068525;28;20131;-84
2022/03/31 08:16:46;;;;;;;38.22;18.33;;;;;;;;;;5069248;28;20052;-84
2022/03/31 08:19:16;;;;;;;42.58;19.17;;;;;;;;;;5068884;28;20055;-84
2022/03/31 08:21:43;;;;;;;41.53;18.65;;;;;;;;;;5067193;28;20127;-84
2022/03/31 08:24:10;;;;;;;39.42;19.67;;;;;;;;;;5069805;28;20468;-84
2022/03/31 08:26:37;;;;;;;47.17;19.08;;;;;;;;;;5074899;28;20105;-84
2022/03/31 08:29:04;;;;;;;36.55;19.08;;;;;;;;;;5067387;28;20143;-84
2022/03/31 08:31:33;;;;;;;39.20;20.08;;;;;;;;;;5075633;28;20077;-84
2022/03/31 08:33:59;;;;;;;38.20;18.20;;;;;;;;;;5064937;28;20436;-84
2022/03/31 08:36:26;;;;;;;37.75;18.65;;;;;;;;;;5066502;28;20122;-85
2022/03/31 08:38:52;;;;;;;39.25;18.50;;;;;;;;;;5069285;28;20087;-83
2022/03/31 08:41:20;;;;;;;39.72;19.27;;;;;;;;;;5066724;28;20052;-83
2022/03/31 08:43:46;;;;;;;36.85;17.58;;;;;;;;;;5060760;28;20076;-84
2022/03/31 08:46:14;;;;;;;41.90;19.33;;;;;;;;;;5074854;28;20087;-83
2022/03/31 08:48:42;;;;;;;38.45;18.63;;;;;;;;;;5067647;28;20113;-83
2022/03/31 08:51:09;;;;;;;38.50;18.70;;;;;;;;;;5068226;28;20052;-83
2022/03/31 08:53:36;;;;;;;40.50;18.75;;;;;;;;;;5074362;28;20076;-84
2022/03/31 08:56:03;;;;;;;37.03;20.15;;;;;;;;;;5077097;28;20072;-84
2022/03/31 08:58:30;;;;;;;39.10;19.23;;;;;;;;;;5069054;28;20084;-84
2022/03/31 09:00:56;;;;;;;37.10;18.35;;;;;;;;;;5061252;28;20057;-84
2022/03/31 09:03:34;;;;;;;40.25;20.80;;;;;;;;;;5057887;28;20115;-83
2022/03/31 09:06:03;;;;;;;40.55;18.45;;;;;;;;;;5063788;28;20056;-84
2022/03/31 09:08:30;;;;;;;34.00;16.27;;;;;;;;;;5069343;28;20072;-84
2022/03/31 09:11:00;;;;;;;36.38;18.10;;;;;;;;;;5069546;28;20148;-83
2022/03/31 09:13:28;;;;;;;40.35;18.25;;;;;;;;;;5069628;28;20048;-83
2022/03/31 09:15:57;;;;;;;36.70;18.30;;;;;;;;;;5069977;28;20098;-83
2022/03/31 09:18:25;;;;;;;43.22;19.05;;;;;;;;;;5069568;28;20047;-83
2022/03/31 09:20:54;;;;;;;48.92;21.25;;;;;;;;;;5071509;28;20056;-83
2022/03/31 09:23:23;;;;;;;40.70;19.55;;;;;;;;;;5051328;28;20049;-85
2022/03/31 09:25:51;;;;;;;41.83;18.88;;;;;;;;;;5070748;28;20072;-85
2022/03/31 09:28:20;;;;;;;36.08;18.17;;;;;;;;;;5072821;28;20068;-84
2022/03/31 09:30:48;;;;;;;42.25;19.58;;;;;;;;;;5070449;28;20139;-84
2022/03/31 09:33:29;;;;;;;41.47;19.23;;;;;;;;;;5069937;28;20064;-84
2022/03/31 09:36:00;;;;;;;40.28;18.20;;;;;;;;;;5068915;28;20632;-85
2022/03/31 09:38:29;;;;;;;42.88;20.77;;;;;;;;;;5070740;28;20084;-84
2022/03/31 09:40:57;;;;;;;41.80;18.70;;;;;;;;;;5071912;28;20040;-85
2022/03/31 09:43:23;;;;;;;37.15;17.55;;;;;;;;;;5078655;28;20041;-84
2022/03/31 09:45:50;;;;;;;40.10;19.63;;;;;;;;;;5070702;28;20099;-83
2022/03/31 09:48:21;;;;;;;40.97;18.75;;;;;;;;;;5065532;28;20095;-84
2022/03/31 09:50:49;;;;;;;39.50;17.45;;;;;;;;;;5069975;28;20489;-86
2022/03/31 09:53:16;;;;;;;34.08;16.23;;;;;;;;;;5067423;28;20114;-86
2022/03/31 09:55:45;;;;;;;37.75;18.60;;;;;;;;;;5067402;28;20127;-86
2022/03/31 09:58:14;;;;;;;36.47;18.17;;;;;;;;;;5072955;28;20041;-86
2022/03/31 10:00:41;;;;;;;36.67;17.77;;;;;;;;;;5069791;28;20091;-85
2022/03/31 10:03:08;;;;;;;42.28;20.05;;;;;;;;;;5069560;28;20482;-86
2022/03/31 10:05:35;;;;;;;44.20;21.23;;;;;;;;;;5069140;28;20084;-84
2022/03/31 10:08:02;;;;;;;43.20;20.92;;;;;;;;;;5069689;28;20131;-85
2022/03/31 10:10:28;;;;;;;51.17;21.95;;;;;;;;;;5067026;28;20116;-85
2022/03/31 10:13:05;;;;;;;43.17;19.75;;;;;;;;;;5071408;28;20121;-85
2022/03/31 10:15:31;;;;;;;;;;;;;;;;;;5069738;28;20056;-85
2022/03/31 10:17:58;;;;;;;;;;;;;;;;;;5069322;28;19920;-85
2022/03/31 10:20:24;;;;;;;43.45;21.75;;;;;;;;;;5067966;28;19994;-85
2022/03/31 10:25:41;;;;;;;44.33;19.55;;;;;;;;;;5068474;28;20227;-84
2022/03/31 10:28:13;;;;;;;47.80;22.38;;;;;;;;;;5067235;28;20481;-84
2022/03/31 10:30:41;;;;;;;44.75;23.40;;;;;;;;;;5068287;28;20095;-85
2022/03/31 10:33:09;;;;;;;52.28;23.13;;;;;;;;;;5069404;28;20063;-85
2022/03/31 10:35:41;;;;;;;44.28;20.80;;;;;;;;;;5067397;28;20059;-84
2022/03/31 10:38:15;;;;;;;47.05;19.98;;;;;;;;;;5062789;28;20075;-85
2022/03/31 10:40:43;;;;;;;43.35;19.98;;;;;;;;;;5063108;28;20084;-84
2022/03/31 10:43:24;;;;;;;45.05;21.58;;;;;;;;;;5066609;28;20044;-84
2022/03/31 10:45:51;;;;;;;44.75;21.05;;;;;;;;;;5051017;28;20098;-84
2022/03/31 10:48:20;;;;;;;43.25;19.05;;;;;;;;;;5061773;28;20041;-84
2022/03/31 10:50:47;;;;;;;40.42;19.00;;;;;;;;;;5063191;28;20052;-86
2022/03/31 10:53:14;;;;;;;40.65;19.95;;;;;;;;;;5071553;28;20048;-86
2022/03/31 10:55:48;;;;;;;37.90;18.63;;;;;;;;;;5069566;28;20099;-85
2022/03/31 10:58:28;;;;;;;40.15;19.77;;;;;;;;;;5068856;28;20044;-85
2022/03/31 11:00:55;;;;;;;40.17;19.67;;;;;;;;;;5068787;28;20057;-83
2022/03/31 11:03:29;;;;;;;33.50;18.65;;;;;;;;;;5068924;28;20503;-83
2022/03/31 11:05:59;;;;;;;34.65;17.65;;;;;;;;;;5070806;28;20503;-83
2022/03/31 11:08:26;;;;;;;41.88;18.70;;;;;;;;;;5070598;28;20106;-84
2022/03/31 11:11:01;;;;;;;38.25;18.33;;;;;;;;;;5071812;28;20070;-84
2022/03/31 11:13:33;;;;;;;35.88;17.55;;;;;;;;;;5072255;28;20052;-83
2022/03/31 11:16:01;;;;;;;37.88;18.45;;;;;;;;;;5071557;28;20098;-85
2022/03/31 11:18:27;;;;;;;34.90;17.75;;;;;;;;;;5071932;28;20096;-85
2022/03/31 11:20:57;;;;;;;39.53;19.05;;;;;;;;;;5071839;28;20052;-85
2022/03/31 11:23:25;;;;;;;38.22;17.25;;;;;;;;;;5071701;28;20060;-85
2022/03/31 11:25:52;;;;;;;35.42;18.05;;;;;;;;;;5072121;28;20059;-85
2022/03/31 11:28:18;;;;;;;37.33;16.23;;;;;;;;;;5072378;28;20102;-85
2022/03/31 11:30:48;;;;;;;35.15;17.52;;;;;;;;;;5074924;28;20048;-86
2022/03/31 11:33:15;;;;;;;35.95;16.98;;;;;;;;;;5072070;28;20058;-85
2022/03/31 11:35:42;;;;;;;36.50;17.95;;;;;;;;;;5072241;28;20053;-85
2022/03/31 11:38:11;;;;;;;38.40;18.08;;;;;;;;;;5072129;28;20044;-86
2022/03/31 11:40:42;;;;;;;37.97;16.92;;;;;;;;;;5072130;28;20048;-84
2022/03/31 11:43:14;;;;;;;38.80;17.48;;;;;;;;;;5078183;28;20753;-84
2022/03/31 11:45:45;;;;;;;37.28;17.30;;;;;;;;;;5082067;28;20097;-85
2022/03/31 11:48:14;;;;;;;35.65;16.98;;;;;;;;;;5092177;28;20040;-84
2022/03/31 11:50:51;;;;;;;33.13;16.75;;;;;;;;;;5072509;28;20068;-85
2022/03/31 11:53:18;;;;;;;34.80;17.73;;;;;;;;;;5071710;28;20044;-85
2022/03/31 11:55:55;;;;;;;34.08;17.33;;;;;;;;;;5071211;28;20083;-85
2022/03/31 11:58:22;;;;;;;31.80;16.50;;;;;;;;;;5071672;28;20122;-85
2022/03/31 12:00:49;;;;;;;29.65;14.27;;;;;;;;;;5071738;28;20098;-84
2022/03/31 12:03:18;;;;;;;30.92;16.05;;;;;;;;;;5071398;28;20083;-84
2022/03/31 12:05:58;;;;;;;32.97;16.02;;;;;;;;;;5072233;28;20045;-84
2022/03/31 12:08:25;;;;;;;34.22;16.40;;;;;;;;;;5072037;28;20298;-85
2022/03/31 12:10:58;;;;;;;34.78;15.23;;;;;;;;;;5072197;28;20044;-85
2022/03/31 12:13:27;;;;;;;33.00;16.05;;;;;;;;;;5068302;28;20163;-85
2022/03/31 12:16:02;;;;;;;32.35;15.75;;;;;;;;;;5052719;28;20048;-86
2022/03/31 12:18:33;;;;;;;29.80;15.98;;;;;;;;;;5072843;28;20044;-85
2022/03/31 12:21:07;;;;;;;37.45;16.92;;;;;;;;;;5053346;28;20099;-85
2022/03/31 12:23:41;;;;;;;31.20;16.85;;;;;;;;;;5080868;28;20105;-84
2022/03/31 12:26:12;;;;;;;37.97;17.38;;;;;;;;;;5080634;28;20058;-85
2022/03/31 12:28:42;;;;;;;30.50;16.40;;;;;;;;;;5081935;28;20052;-83
2022/03/31 12:31:20;;;;;;;33.30;16.80;;;;;;;;;;5080673;28;20053;-84
2022/03/31 12:33:50;;;;;;;30.20;15.45;;;;;;;;;;5080096;28;20055;-85
2022/03/31 12:36:18;;;;;;;34.60;16.88;;;;;;;;;;5086611;28;20047;-85
2022/03/31 12:38:45;;;;;;;35.33;16.83;;;;;;;;;;5088812;28;20083;-84
2022/03/31 12:41:18;;;;;;;33.47;16.70;;;;;;;;;;5089931;28;20068;-85
2022/03/31 12:44:00;;;;;;;31.35;16.33;;;;;;;;;;5079430;28;20078;-84
2022/03/31 12:46:29;;;;;;;34.55;17.70;;;;;;;;;;5075665;28;20070;-85
2022/03/31 12:49:01;;;;;;;33.45;16.95;;;;;;;;;;5062811;28;20047;-84
2022/03/31 12:51:28;;;;;;;32.67;15.65;;;;;;;;;;5074379;28;20095;-85
2022/03/31 12:53:55;;;;;;;32.45;16.13;;;;;;;;;;5075267;28;20044;-84
2022/03/31 12:56:27;;;;;;;34.67;17.13;;;;;;;;;;5075522;28;20616;-86
2022/03/31 12:58:55;;;;;;;31.65;16.52;;;;;;;;;;5075234;28;20052;-86
2022/03/31 13:01:25;;;;;;;33.35;17.88;;;;;;;;;;5076063;28;20079;-85
2022/03/31 13:03:52;;;;;;;33.05;16.63;;;;;;;;;;5076193;28;20048;-85
2022/03/31 13:06:20;;;;;;;34.40;17.13;;;;;;;;;;5074933;28;20076;-84
2022/03/31 13:08:53;;;;;;;32.85;17.05;;;;;;;;;;5074796;28;20048;-85
2022/03/31 13:11:21;;;;;;;31.00;16.77;;;;;;;;;;5075089;28;20090;-85
2022/03/31 13:13:48;;;;;;;36.60;17.88;;;;;;;;;;5076412;28;20386;-86
2022/03/31 13:16:18;;;;;;;36.22;18.38;;;;;;;;;;5076719;28;20060;-85
2022/03/31 13:18:45;;;;;;;39.72;17.08;;;;;;;;;;5070598;28;20497;-85
2022/03/31 13:21:12;;;;;;;34.25;17.65;;;;;;;;;;5074276;28;20080;-86
2022/03/31 13:23:40;;;;;;;30.23;15.38;;;;;;;;;;5074713;28;20128;-86
2022/03/31 13:26:09;;;;;;;31.60;15.52;;;;;;;;;;5074274;28;20505;-86
2022/03/31 13:28:39;;;;;;;39.08;18.20;;;;;;;;;;5075732;28;20044;-86
2022/03/31 13:31:06;;;;;;;38.38;16.92;;;;;;;;;;5073293;28;20075;-85
2022/03/31 13:33:44;;;;;;;34.92;17.00;;;;;;;;;;5072587;28;20513;-84
2022/03/31 13:36:11;;;;;;;31.80;15.98;;;;;;;;;;5076622;28;20044;-86
2022/03/31 13:38:38;;;;;;;36.15;17.08;;;;;;;;;;5073697;28;20468;-85
2022/03/31 13:41:06;;;;;;;30.98;15.32;;;;;;;;;;5073298;28;20477;-86
2022/03/31 13:43:34;;;;;;;29.73;15.38;;;;;;;;;;5073763;28;20377;-86
2022/03/31 13:46:01;;;;;;;32.40;15.13;;;;;;;;;;5073398;28;20056;-86
2022/03/31 13:48:28;;;;;;;32.58;15.63;;;;;;;;;;5067045;28;20102;-86
2022/03/31 13:50:55;;;;;;;32.72;16.25;;;;;;;;;;5069715;28;20476;-86
2022/03/31 13:56:08;;;;;;;30.02;15.60;;;;;;;;;;5070717;28;20051;-86
2022/03/31 14:01:19;;;;;;;27.35;14.57;;;;;;;;;;5070710;28;20153;-86
2022/03/31 14:03:48;;;;;;;32.15;16.60;;;;;;;;;;5071055;28;20052;-86
2022/03/31 14:06:18;;;;;;;30.67;14.43;;;;;;;;;;5070206;28;20052;-86
2022/03/31 14:08:45;;;;;;;33.00;17.30;;;;;;;;;;5069715;28;20433;-86
2022/03/31 14:11:13;;;;;;;31.58;17.00;;;;;;;;;;5068317;28;20606;-86
2022/03/31 14:13:40;;;;;;;31.55;16.48;;;;;;;;;;5066438;28;20062;-86
2022/03/31 14:16:08;;;;;;;32.03;16.65;;;;;;;;;;5069116;28;20097;-86
2022/03/31 14:18:36;;;;;;;39.67;16.23;;;;;;;;;;5063757;28;20048;-86
2022/03/31 14:21:06;;;;;;;32.13;17.00;;;;;;;;;;5060007;28;20098;-85
2022/03/31 14:23:33;;;;;;;31.55;16.48;;;;;;;;;;5068696;28;20040;-86
2022/03/31 14:26:00;;;;;;;35.33;18.20;;;;;;;;;;5069695;28;20068;-86
2022/03/31 14:28:29;;;;;;;35.17;16.52;;;;;;;;;;5069937;28;20052;-86
2022/03/31 14:30:56;;;;;;;31.77;15.50;;;;;;;;;;5057916;28;20308;-86
2022/03/31 14:33:22;;;;;;;30.25;15.27;;;;;;;;;;5069312;28;20053;-86
2022/03/31 14:35:50;;;;;;;27.02;14.10;;;;;;;;;;5069684;28;20105;-86